Pagina principale
METAR-TAF:

METAR-TAF

Aeroporti :

Aeroporto Internazionale di Yap

Yap, Micronesia

latitudine: 09-29N, longitudine: 138-05E, altezza: 28 m

Osservazione

Il bollettino è stato emesso 9 minuti fa, alle 02:52 UTC
Vento 8 kt da est/nord-est
Temperature 32°C
Umidità 63%
Pressione 1011 hPa
Visibilità: 19.3 km
Poco nuvoloso ad un'altezza di 1600 ft
Nubi sparse ad un'altezza di 30000 ft

METAR: PTYA 220252Z 07008KT 12SM FEW016 SCT300 32/24 A2984 RMK SLP105 8/101 T03220242 57010

Ora: 13:01 (03:01 UTC)

Previsione

Il bollettino è stato emesso 3 ore e 41 minuti fa, alle 23:20 UTC
Previsione valida dal 22 alle 00 UTC al 22 alle 24 UTC
Vento 10 kt da est/nord-est
Visibilità: 10 km
Nubi sparse ad un'altezza di 1600 ft

TAF: PTYA 212320Z 2200/2224 07010KT P6SM SCT016

Osservazioni e previsioni meteorologiche di più di 4000 aeroporti (messaggi METAR e TAF).

Le stazioni disponibili sono rappresentate dai dischi gialli e rossi sulla carta.

Puntare il mouse per vedere il nome della stazione.

Clicca sopra per visualizzare le osservazioni e previsioni meteorologiche.

Per cambiare la mappa : fare clic sui pulsanti verdi con una croce nera per ingrandire, il pulsante verde con un trattino per diminuire, o sulla freccia verde per le mappe adiacenti.


METAR-TAF: